sensor_id;sensor_type;location;lat;lon;timestamp;P1;durP1;ratioP1;P2;durP2;ratioP2
41514;SDS011;27247;48.020;16.720;2023-05-29T01:55:37;14.98;;;8.60;;
41514;SDS011;27247;48.020;16.720;2023-05-29T01:59:47;18.23;;;9.05;;
41514;SDS011;27247;48.020;16.720;2023-05-29T02:03:57;16.10;;;8.30;;
41514;SDS011;27247;48.020;16.720;2023-05-29T02:08:08;18.70;;;9.23;;
41514;SDS011;27247;48.020;16.720;2023-05-29T02:12:18;16.00;;;9.23;;
41514;SDS011;27247;48.020;16.720;2023-05-29T02:16:28;15.67;;;9.00;;
41514;SDS011;27247;48.020;16.720;2023-05-29T02:20:39;16.43;;;9.77;;
41514;SDS011;27247;48.020;16.720;2023-05-29T02:24:50;22.02;;;9.40;;
41514;SDS011;27247;48.020;16.720;2023-05-29T02:29:00;14.80;;;8.70;;
41514;SDS011;27247;48.020;16.720;2023-05-29T02:33:11;15.35;;;8.82;;
41514;SDS011;27247;48.020;16.720;2023-05-29T02:37:21;15.33;;;8.80;;
41514;SDS011;27247;48.020;16.720;2023-05-29T02:41:35;15.95;;;8.68;;
41514;SDS011;27247;48.020;16.720;2023-05-29T02:45:45;18.40;;;8.38;;
41514;SDS011;27247;48.020;16.720;2023-05-29T02:49:56;15.43;;;7.67;;
41514;SDS011;27247;48.020;16.720;2023-05-29T02:54:06;14.57;;;8.90;;
41514;SDS011;27247;48.020;16.720;2023-05-29T02:58:16;17.10;;;9.60;;
41514;SDS011;27247;48.020;16.720;2023-05-29T03:02:27;17.30;;;9.88;;
41514;SDS011;27247;48.020;16.720;2023-05-29T03:06:37;17.67;;;8.70;;
41514;SDS011;27247;48.020;16.720;2023-05-29T03:10:47;20.07;;;9.37;;
41514;SDS011;27247;48.020;16.720;2023-05-29T03:14:58;23.23;;;9.83;;
41514;SDS011;27247;48.020;16.720;2023-05-29T03:19:08;14.93;;;9.02;;
41514;SDS011;27247;48.020;16.720;2023-05-29T03:23:19;20.85;;;8.95;;
41514;SDS011;27247;48.020;16.720;2023-05-29T03:27:30;15.43;;;8.50;;
41514;SDS011;27247;48.020;16.720;2023-05-29T03:31:40;13.75;;;8.70;;
41514;SDS011;27247;48.020;16.720;2023-05-29T03:35:51;17.65;;;9.20;;
41514;SDS011;27247;48.020;16.720;2023-05-29T03:40:01;17.05;;;9.57;;
41514;SDS011;27247;48.020;16.720;2023-05-29T03:44:12;20.73;;;9.52;;
41514;SDS011;27247;48.020;16.720;2023-05-29T03:48:22;17.08;;;8.55;;
41514;SDS011;27247;48.020;16.720;2023-05-29T03:52:32;16.43;;;8.70;;
41514;SDS011;27247;48.020;16.720;2023-05-29T03:56:43;14.18;;;8.63;;
41514;SDS011;27247;48.020;16.720;2023-05-29T04:00:53;16.20;;;8.60;;
41514;SDS011;27247;48.020;16.720;2023-05-29T04:05:04;15.07;;;8.70;;
41514;SDS011;27247;48.020;16.720;2023-05-29T04:09:16;15.90;;;9.20;;
41514;SDS011;27247;48.020;16.720;2023-05-29T04:13:26;20.73;;;9.30;;
41514;SDS011;27247;48.020;16.720;2023-05-29T04:17:36;15.47;;;8.67;;
41514;SDS011;27247;48.020;16.720;2023-05-29T04:21:47;19.80;;;9.50;;
41514;SDS011;27247;48.020;16.720;2023-05-29T04:25:57;15.07;;;8.48;;
41514;SDS011;27247;48.020;16.720;2023-05-29T04:30:08;13.15;;;9.02;;
41514;SDS011;27247;48.020;16.720;2023-05-29T04:34:18;13.10;;;8.40;;
41514;SDS011;27247;48.020;16.720;2023-05-29T04:38:30;21.23;;;9.00;;
41514;SDS011;27247;48.020;16.720;2023-05-29T04:42:40;16.37;;;7.93;;
41514;SDS011;27247;48.020;16.720;2023-05-29T04:46:50;13.35;;;8.32;;
41514;SDS011;27247;48.020;16.720;2023-05-29T04:51:02;13.77;;;7.85;;
41514;SDS011;27247;48.020;16.720;2023-05-29T04:55:12;19.13;;;8.88;;
41514;SDS011;27247;48.020;16.720;2023-05-29T04:59:22;14.33;;;9.03;;
41514;SDS011;27247;48.020;16.720;2023-05-29T05:03:33;15.77;;;8.20;;
41514;SDS011;27247;48.020;16.720;2023-05-29T05:07:44;14.10;;;7.65;;
41514;SDS011;27247;48.020;16.720;2023-05-29T05:11:54;11.75;;;7.35;;
41514;SDS011;27247;48.020;16.720;2023-05-29T05:16:05;13.50;;;8.13;;
41514;SDS011;27247;48.020;16.720;2023-05-29T05:20:16;16.02;;;7.75;;
41514;SDS011;27247;48.020;16.720;2023-05-29T05:24:26;11.73;;;6.97;;
41514;SDS011;27247;48.020;16.720;2023-05-29T05:28:37;14.07;;;7.43;;
41514;SDS011;27247;48.020;16.720;2023-05-29T05:32:47;13.90;;;7.38;;
41514;SDS011;27247;48.020;16.720;2023-05-29T05:36:57;11.70;;;6.70;;
41514;SDS011;27247;48.020;16.720;2023-05-29T05:41:08;12.07;;;6.68;;
41514;SDS011;27247;48.020;16.720;2023-05-29T05:45:18;12.23;;;7.50;;
41514;SDS011;27247;48.020;16.720;2023-05-29T05:49:28;11.65;;;6.47;;
41514;SDS011;27247;48.020;16.720;2023-05-29T05:53:39;14.27;;;6.68;;
41514;SDS011;27247;48.020;16.720;2023-05-29T05:57:49;12.07;;;6.28;;
41514;SDS011;27247;48.020;16.720;2023-05-29T06:02:00;14.27;;;6.47;;
41514;SDS011;27247;48.020;16.720;2023-05-29T06:06:10;13.52;;;6.85;;
41514;SDS011;27247;48.020;16.720;2023-05-29T06:10:20;10.00;;;6.43;;
41514;SDS011;27247;48.020;16.720;2023-05-29T06:14:31;12.47;;;6.73;;
41514;SDS011;27247;48.020;16.720;2023-05-29T06:18:41;10.13;;;6.33;;
41514;SDS011;27247;48.020;16.720;2023-05-29T06:22:51;11.00;;;6.30;;
41514;SDS011;27247;48.020;16.720;2023-05-29T06:27:02;9.60;;;5.97;;
41514;SDS011;27247;48.020;16.720;2023-05-29T06:31:13;9.07;;;5.57;;
41514;SDS011;27247;48.020;16.720;2023-05-29T06:35:23;11.63;;;5.90;;
41514;SDS011;27247;48.020;16.720;2023-05-29T06:39:33;11.60;;;5.57;;
41514;SDS011;27247;48.020;16.720;2023-05-29T06:43:44;17.48;;;4.95;;
41514;SDS011;27247;48.020;16.720;2023-05-29T06:47:54;10.88;;;5.10;;
41514;SDS011;27247;48.020;16.720;2023-05-29T06:52:05;10.75;;;4.90;;
41514;SDS011;27247;48.020;16.720;2023-05-29T06:56:15;7.85;;;5.15;;
41514;SDS011;27247;48.020;16.720;2023-05-29T07:00:26;10.10;;;4.50;;
41514;SDS011;27247;48.020;16.720;2023-05-29T07:04:36;6.53;;;4.17;;
41514;SDS011;27247;48.020;16.720;2023-05-29T07:08:47;7.68;;;4.70;;
41514;SDS011;27247;48.020;16.720;2023-05-29T07:12:57;9.27;;;4.10;;
41514;SDS011;27247;48.020;16.720;2023-05-29T07:17:08;11.53;;;4.73;;
41514;SDS011;27247;48.020;16.720;2023-05-29T07:21:18;7.85;;;4.13;;
41514;SDS011;27247;48.020;16.720;2023-05-29T07:25:30;12.10;;;4.55;;
41514;SDS011;27247;48.020;16.720;2023-05-29T07:29:40;6.60;;;3.97;;
41514;SDS011;27247;48.020;16.720;2023-05-29T07:33:51;10.00;;;4.87;;
41514;SDS011;27247;48.020;16.720;2023-05-29T07:38:01;7.10;;;4.30;;
41514;SDS011;27247;48.020;16.720;2023-05-29T07:42:11;9.77;;;4.40;;
41514;SDS011;27247;48.020;16.720;2023-05-29T07:46:22;9.45;;;4.57;;
41514;SDS011;27247;48.020;16.720;2023-05-29T07:50:32;7.90;;;4.70;;
41514;SDS011;27247;48.020;16.720;2023-05-29T07:54:42;8.75;;;4.35;;
41514;SDS011;27247;48.020;16.720;2023-05-29T07:58:53;11.57;;;4.50;;
41514;SDS011;27247;48.020;16.720;2023-05-29T08:03:04;8.43;;;4.32;;
41514;SDS011;27247;48.020;16.720;2023-05-29T08:07:15;8.20;;;4.18;;
41514;SDS011;27247;48.020;16.720;2023-05-29T08:11:25;7.47;;;4.40;;
41514;SDS011;27247;48.020;16.720;2023-05-29T08:15:36;9.00;;;4.22;;
41514;SDS011;27247;48.020;16.720;2023-05-29T08:19:46;11.17;;;3.97;;
41514;SDS011;27247;48.020;16.720;2023-05-29T08:23:57;9.53;;;3.90;;
41514;SDS011;27247;48.020;16.720;2023-05-29T08:28:07;7.18;;;4.03;;
41514;SDS011;27247;48.020;16.720;2023-05-29T08:32:18;6.88;;;4.63;;
41514;SDS011;27247;48.020;16.720;2023-05-29T08:36:28;7.87;;;4.53;;
41514;SDS011;27247;48.020;16.720;2023-05-29T08:40:38;6.27;;;4.20;;
41514;SDS011;27247;48.020;16.720;2023-05-29T08:44:49;8.82;;;4.72;;
41514;SDS011;27247;48.020;16.720;2023-05-29T08:49:05;7.45;;;4.43;;
41514;SDS011;27247;48.020;16.720;2023-05-29T08:53:18;10.20;;;3.97;;
41514;SDS011;27247;48.020;16.720;2023-05-29T08:57:29;9.65;;;4.55;;
41514;SDS011;27247;48.020;16.720;2023-05-29T09:01:40;8.07;;;4.07;;
41514;SDS011;27247;48.020;16.720;2023-05-29T09:05:50;12.73;;;4.40;;
41514;SDS011;27247;48.020;16.720;2023-05-29T09:10:01;7.93;;;4.40;;
41514;SDS011;27247;48.020;16.720;2023-05-29T09:18:52;8.48;;;4.47;;
41514;SDS011;27247;48.020;16.720;2023-05-29T09:23:03;6.95;;;4.07;;
41514;SDS011;27247;48.020;16.720;2023-05-29T09:27:16;6.05;;;4.05;;
41514;SDS011;27247;48.020;16.720;2023-05-29T09:31:27;5.75;;;3.90;;
41514;SDS011;27247;48.020;16.720;2023-05-29T09:35:40;17.92;;;4.55;;
41514;SDS011;27247;48.020;16.720;2023-05-29T09:39:55;9.82;;;4.22;;
41514;SDS011;27247;48.020;16.720;2023-05-29T09:44:05;7.93;;;4.07;;
41514;SDS011;27247;48.020;16.720;2023-05-29T09:48:18;5.75;;;4.00;;
41514;SDS011;27247;48.020;16.720;2023-05-29T09:52:33;7.10;;;3.80;;
41514;SDS011;27247;48.020;16.720;2023-05-29T09:56:46;11.32;;;4.45;;
41514;SDS011;27247;48.020;16.720;2023-05-29T10:00:57;8.88;;;3.83;;
41514;SDS011;27247;48.020;16.720;2023-05-29T10:05:08;8.35;;;3.95;;
41514;SDS011;27247;48.020;16.720;2023-05-29T10:09:19;8.05;;;4.35;;
41514;SDS011;27247;48.020;16.720;2023-05-29T10:13:33;11.13;;;5.05;;
41514;SDS011;27247;48.020;16.720;2023-05-29T10:22:07;7.47;;;4.15;;
41514;SDS011;27247;48.020;16.720;2023-05-29T10:26:19;5.55;;;3.70;;
41514;SDS011;27247;48.020;16.720;2023-05-29T10:30:41;5.13;;;3.03;;
41514;SDS011;27247;48.020;16.720;2023-05-29T10:39:18;8.10;;;3.63;;
41514;SDS011;27247;48.020;16.720;2023-05-29T10:43:32;7.97;;;4.28;;
41514;SDS011;27247;48.020;16.720;2023-05-29T10:47:43;8.10;;;4.15;;
41514;SDS011;27247;48.020;16.720;2023-05-29T10:51:54;5.87;;;3.70;;
41514;SDS011;27247;48.020;16.720;2023-05-29T10:56:04;7.97;;;3.40;;
41514;SDS011;27247;48.020;16.720;2023-05-29T11:00:18;7.70;;;3.60;;
41514;SDS011;27247;48.020;16.720;2023-05-29T11:04:33;5.95;;;3.83;;
41514;SDS011;27247;48.020;16.720;2023-05-29T11:08:52;7.50;;;4.07;;
41514;SDS011;27247;48.020;16.720;2023-05-29T11:13:06;6.70;;;3.80;;
41514;SDS011;27247;48.020;16.720;2023-05-29T11:17:30;8.65;;;4.55;;
41514;SDS011;27247;48.020;16.720;2023-05-29T11:25:57;5.40;;;3.58;;
41514;SDS011;27247;48.020;16.720;2023-05-29T11:30:09;7.05;;;3.80;;
41514;SDS011;27247;48.020;16.720;2023-05-29T11:34:20;8.00;;;3.63;;
41514;SDS011;27247;48.020;16.720;2023-05-29T11:38:32;6.35;;;4.15;;
41514;SDS011;27247;48.020;16.720;2023-05-29T11:42:43;12.10;;;3.90;;
41514;SDS011;27247;48.020;16.720;2023-05-29T11:47:01;8.77;;;4.30;;
41514;SDS011;27247;48.020;16.720;2023-05-29T11:51:15;6.38;;;3.80;;
41514;SDS011;27247;48.020;16.720;2023-05-29T11:55:26;5.95;;;4.30;;
41514;SDS011;27247;48.020;16.720;2023-05-29T11:59:37;4.95;;;3.65;;
41514;SDS011;27247;48.020;16.720;2023-05-29T12:03:49;7.57;;;4.75;;
41514;SDS011;27247;48.020;16.720;2023-05-29T12:08:00;6.85;;;3.65;;
41514;SDS011;27247;48.020;16.720;2023-05-29T12:12:11;8.38;;;4.10;;
41514;SDS011;27247;48.020;16.720;2023-05-29T12:16:22;8.13;;;4.45;;
41514;SDS011;27247;48.020;16.720;2023-05-29T12:20:33;10.02;;;5.00;;
41514;SDS011;27247;48.020;16.720;2023-05-29T12:24:43;6.65;;;4.13;;
41514;SDS011;27247;48.020;16.720;2023-05-29T12:28:54;8.23;;;3.70;;
41514;SDS011;27247;48.020;16.720;2023-05-29T12:33:04;6.43;;;4.33;;
41514;SDS011;27247;48.020;16.720;2023-05-29T12:37:20;8.35;;;5.15;;
41514;SDS011;27247;48.020;16.720;2023-05-29T12:41:35;7.80;;;4.95;;
41514;SDS011;27247;48.020;16.720;2023-05-29T12:45:53;6.53;;;4.47;;
41514;SDS011;27247;48.020;16.720;2023-05-29T12:50:27;8.23;;;4.82;;
41514;SDS011;27247;48.020;16.720;2023-05-29T12:54:36;9.55;;;4.93;;
41514;SDS011;27247;48.020;16.720;2023-05-29T12:58:47;6.60;;;3.90;;
41514;SDS011;27247;48.020;16.720;2023-05-29T13:02:58;6.55;;;4.18;;
41514;SDS011;27247;48.020;16.720;2023-05-29T13:07:09;9.90;;;4.37;;
41514;SDS011;27247;48.020;16.720;2023-05-29T13:11:19;6.57;;;4.40;;
41514;SDS011;27247;48.020;16.720;2023-05-29T13:15:30;9.95;;;4.55;;
41514;SDS011;27247;48.020;16.720;2023-05-29T13:19:42;8.10;;;4.75;;
41514;SDS011;27247;48.020;16.720;2023-05-29T13:23:53;6.93;;;4.43;;
41514;SDS011;27247;48.020;16.720;2023-05-29T13:28:04;7.20;;;4.43;;
41514;SDS011;27247;48.020;16.720;2023-05-29T13:32:14;14.10;;;4.73;;
41514;SDS011;27247;48.020;16.720;2023-05-29T13:36:24;6.77;;;4.03;;
41514;SDS011;27247;48.020;16.720;2023-05-29T13:40:35;5.33;;;3.90;;
41514;SDS011;27247;48.020;16.720;2023-05-29T13:44:46;7.53;;;4.18;;
41514;SDS011;27247;48.020;16.720;2023-05-29T13:48:57;7.80;;;4.00;;
41514;SDS011;27247;48.020;16.720;2023-05-29T13:53:07;7.50;;;4.20;;
41514;SDS011;27247;48.020;16.720;2023-05-29T13:57:18;7.30;;;3.80;;
41514;SDS011;27247;48.020;16.720;2023-05-29T14:01:28;9.02;;;4.82;;
41514;SDS011;27247;48.020;16.720;2023-05-29T14:05:39;12.10;;;4.97;;
41514;SDS011;27247;48.020;16.720;2023-05-29T14:09:49;8.07;;;4.37;;
41514;SDS011;27247;48.020;16.720;2023-05-29T14:13:59;8.65;;;4.82;;
41514;SDS011;27247;48.020;16.720;2023-05-29T14:18:10;7.23;;;4.23;;
41514;SDS011;27247;48.020;16.720;2023-05-29T14:22:20;10.33;;;4.53;;
41514;SDS011;27247;48.020;16.720;2023-05-29T14:26:30;6.50;;;4.20;;
41514;SDS011;27247;48.020;16.720;2023-05-29T14:30:41;10.73;;;4.33;;
41514;SDS011;27247;48.020;16.720;2023-05-29T14:34:51;6.97;;;3.83;;
41514;SDS011;27247;48.020;16.720;2023-05-29T14:39:03;7.22;;;4.35;;
41514;SDS011;27247;48.020;16.720;2023-05-29T14:43:14;5.47;;;3.83;;
41514;SDS011;27247;48.020;16.720;2023-05-29T14:47:24;6.68;;;4.28;;
41514;SDS011;27247;48.020;16.720;2023-05-29T14:51:35;8.60;;;4.60;;
41514;SDS011;27247;48.020;16.720;2023-05-29T14:55:46;7.78;;;4.57;;
41514;SDS011;27247;48.020;16.720;2023-05-29T14:59:56;6.83;;;4.00;;
41514;SDS011;27247;48.020;16.720;2023-05-29T15:04:07;9.77;;;4.40;;
41514;SDS011;27247;48.020;16.720;2023-05-29T15:08:17;6.87;;;4.17;;
41514;SDS011;27247;48.020;16.720;2023-05-29T15:12:27;8.43;;;5.03;;
41514;SDS011;27247;48.020;16.720;2023-05-29T15:16:37;7.67;;;4.00;;
41514;SDS011;27247;48.020;16.720;2023-05-29T15:20:48;8.23;;;4.72;;
41514;SDS011;27247;48.020;16.720;2023-05-29T15:24:58;7.73;;;4.50;;
41514;SDS011;27247;48.020;16.720;2023-05-29T15:29:09;8.00;;;4.20;;
41514;SDS011;27247;48.020;16.720;2023-05-29T15:33:19;8.75;;;4.57;;
41514;SDS011;27247;48.020;16.720;2023-05-29T15:37:30;8.35;;;4.75;;
41514;SDS011;27247;48.020;16.720;2023-05-29T15:41:41;10.88;;;4.68;;
41514;SDS011;27247;48.020;16.720;2023-05-29T15:45:51;8.90;;;4.60;;
41514;SDS011;27247;48.020;16.720;2023-05-29T15:50:02;6.30;;;4.33;;
41514;SDS011;27247;48.020;16.720;2023-05-29T15:54:13;7.07;;;3.88;;
41514;SDS011;27247;48.020;16.720;2023-05-29T15:58:23;9.00;;;4.47;;
41514;SDS011;27247;48.020;16.720;2023-05-29T16:02:40;12.63;;;4.55;;
41514;SDS011;27247;48.020;16.720;2023-05-29T16:06:50;7.15;;;4.60;;
41514;SDS011;27247;48.020;16.720;2023-05-29T16:11:01;6.57;;;3.80;;
41514;SDS011;27247;48.020;16.720;2023-05-29T16:15:14;12.18;;;4.53;;
41514;SDS011;27247;48.020;16.720;2023-05-29T16:19:25;7.80;;;4.32;;
41514;SDS011;27247;48.020;16.720;2023-05-29T16:23:35;6.13;;;3.97;;
41514;SDS011;27247;48.020;16.720;2023-05-29T16:27:46;12.88;;;5.22;;
41514;SDS011;27247;48.020;16.720;2023-05-29T16:31:56;5.70;;;4.15;;
41514;SDS011;27247;48.020;16.720;2023-05-29T16:36:10;8.10;;;4.25;;
41514;SDS011;27247;48.020;16.720;2023-05-29T16:40:21;6.07;;;3.58;;
41514;SDS011;27247;48.020;16.720;2023-05-29T16:44:33;8.73;;;4.85;;
41514;SDS011;27247;48.020;16.720;2023-05-29T16:48:43;7.55;;;4.50;;
41514;SDS011;27247;48.020;16.720;2023-05-29T16:52:54;6.68;;;4.20;;
41514;SDS011;27247;48.020;16.720;2023-05-29T16:57:08;9.32;;;4.07;;
41514;SDS011;27247;48.020;16.720;2023-05-29T17:01:19;6.82;;;3.88;;
41514;SDS011;27247;48.020;16.720;2023-05-29T17:05:29;8.57;;;4.65;;
41514;SDS011;27247;48.020;16.720;2023-05-29T17:09:40;9.23;;;4.32;;
41514;SDS011;27247;48.020;16.720;2023-05-29T17:13:51;9.30;;;5.03;;
41514;SDS011;27247;48.020;16.720;2023-05-29T17:18:01;9.32;;;4.95;;
41514;SDS011;27247;48.020;16.720;2023-05-29T17:22:12;9.57;;;4.43;;
41514;SDS011;27247;48.020;16.720;2023-05-29T17:26:22;8.32;;;4.50;;
41514;SDS011;27247;48.020;16.720;2023-05-29T17:30:33;6.45;;;3.63;;
41514;SDS011;27247;48.020;16.720;2023-05-29T17:34:43;9.20;;;4.90;;
41514;SDS011;27247;48.020;16.720;2023-05-29T17:38:54;6.70;;;4.25;;
41514;SDS011;27247;48.020;16.720;2023-05-29T17:43:05;8.20;;;4.53;;
41514;SDS011;27247;48.020;16.720;2023-05-29T17:47:15;8.45;;;4.95;;
41514;SDS011;27247;48.020;16.720;2023-05-29T17:51:27;6.97;;;4.72;;
41514;SDS011;27247;48.020;16.720;2023-05-29T17:55:38;11.15;;;4.60;;
41514;SDS011;27247;48.020;16.720;2023-05-29T17:59:51;10.70;;;4.82;;
41514;SDS011;27247;48.020;16.720;2023-05-29T18:04:09;10.13;;;4.30;;
41514;SDS011;27247;48.020;16.720;2023-05-29T18:08:20;9.57;;;4.57;;
41514;SDS011;27247;48.020;16.720;2023-05-29T18:12:30;10.63;;;5.00;;
41514;SDS011;27247;48.020;16.720;2023-05-29T18:16:43;11.32;;;5.28;;
41514;SDS011;27247;48.020;16.720;2023-05-29T18:20:57;8.98;;;4.28;;
41514;SDS011;27247;48.020;16.720;2023-05-29T18:25:11;9.13;;;4.53;;
41514;SDS011;27247;48.020;16.720;2023-05-29T18:29:22;8.75;;;4.32;;
41514;SDS011;27247;48.020;16.720;2023-05-29T18:33:32;7.63;;;4.03;;
41514;SDS011;27247;48.020;16.720;2023-05-29T18:37:43;8.85;;;4.40;;
41514;SDS011;27247;48.020;16.720;2023-05-29T18:41:53;9.30;;;4.78;;
41514;SDS011;27247;48.020;16.720;2023-05-29T18:46:04;9.30;;;4.45;;
41514;SDS011;27247;48.020;16.720;2023-05-29T18:50:17;11.60;;;5.13;;
41514;SDS011;27247;48.020;16.720;2023-05-29T18:54:27;10.43;;;4.88;;
41514;SDS011;27247;48.020;16.720;2023-05-29T18:58:38;8.48;;;4.70;;
41514;SDS011;27247;48.020;16.720;2023-05-29T19:02:49;8.38;;;4.63;;
41514;SDS011;27247;48.020;16.720;2023-05-29T19:07:01;12.65;;;4.70;;
41514;SDS011;27247;48.020;16.720;2023-05-29T19:11:12;9.25;;;4.07;;
41514;SDS011;27247;48.020;16.720;2023-05-29T19:15:25;8.52;;;4.90;;
41514;SDS011;27247;48.020;16.720;2023-05-29T19:19:36;9.68;;;5.43;;
41514;SDS011;27247;48.020;16.720;2023-05-29T19:23:49;5.97;;;4.63;;
41514;SDS011;27247;48.020;16.720;2023-05-29T19:28:00;7.80;;;4.97;;
41514;SDS011;27247;48.020;16.720;2023-05-29T19:32:10;8.85;;;4.93;;
41514;SDS011;27247;48.020;16.720;2023-05-29T19:36:21;7.28;;;4.93;;
41514;SDS011;27247;48.020;16.720;2023-05-29T19:40:33;7.38;;;4.25;;
41514;SDS011;27247;48.020;16.720;2023-05-29T19:44:43;11.20;;;4.43;;
41514;SDS011;27247;48.020;16.720;2023-05-29T19:48:54;9.02;;;5.70;;
41514;SDS011;27247;48.020;16.720;2023-05-29T19:53:05;7.18;;;4.53;;
41514;SDS011;27247;48.020;16.720;2023-05-29T19:57:15;8.30;;;4.78;;
41514;SDS011;27247;48.020;16.720;2023-05-29T20:01:26;9.43;;;4.93;;
41514;SDS011;27247;48.020;16.720;2023-05-29T20:05:36;12.27;;;5.10;;
41514;SDS011;27247;48.020;16.720;2023-05-29T20:09:48;13.60;;;5.03;;
41514;SDS011;27247;48.020;16.720;2023-05-29T20:13:58;8.23;;;4.77;;
41514;SDS011;27247;48.020;16.720;2023-05-29T20:18:08;11.23;;;4.70;;
41514;SDS011;27247;48.020;16.720;2023-05-29T20:22:19;8.17;;;4.93;;
41514;SDS011;27247;48.020;16.720;2023-05-29T20:26:29;7.45;;;4.28;;
41514;SDS011;27247;48.020;16.720;2023-05-29T20:30:41;8.52;;;4.07;;
41514;SDS011;27247;48.020;16.720;2023-05-29T20:34:52;8.33;;;4.53;;
41514;SDS011;27247;48.020;16.720;2023-05-29T20:39:02;8.40;;;5.07;;
41514;SDS011;27247;48.020;16.720;2023-05-29T20:43:18;9.95;;;5.90;;
41514;SDS011;27247;48.020;16.720;2023-05-29T20:47:32;6.80;;;4.90;;
41514;SDS011;27247;48.020;16.720;2023-05-29T20:51:42;9.03;;;4.30;;
41514;SDS011;27247;48.020;16.720;2023-05-29T20:55:53;10.70;;;5.03;;
41514;SDS011;27247;48.020;16.720;2023-05-29T21:00:03;8.25;;;4.78;;
41514;SDS011;27247;48.020;16.720;2023-05-29T21:04:16;13.07;;;5.63;;
41514;SDS011;27247;48.020;16.720;2023-05-29T21:08:29;9.25;;;4.97;;
41514;SDS011;27247;48.020;16.720;2023-05-29T21:12:39;8.30;;;4.80;;
41514;SDS011;27247;48.020;16.720;2023-05-29T21:16:50;7.88;;;4.57;;
41514;SDS011;27247;48.020;16.720;2023-05-29T21:21:00;10.03;;;4.23;;
41514;SDS011;27247;48.020;16.720;2023-05-29T21:25:11;6.55;;;4.20;;
41514;SDS011;27247;48.020;16.720;2023-05-29T21:29:21;8.15;;;5.43;;
41514;SDS011;27247;48.020;16.720;2023-05-29T21:33:31;8.03;;;4.73;;
41514;SDS011;27247;48.020;16.720;2023-05-29T21:37:42;9.82;;;4.88;;
41514;SDS011;27247;48.020;16.720;2023-05-29T21:41:52;9.13;;;5.50;;
41514;SDS011;27247;48.020;16.720;2023-05-29T21:46:03;9.95;;;5.35;;
41514;SDS011;27247;48.020;16.720;2023-05-29T21:50:14;16.88;;;5.68;;
41514;SDS011;27247;48.020;16.720;2023-05-29T21:54:24;9.90;;;5.43;;
41514;SDS011;27247;48.020;16.720;2023-05-29T21:58:35;10.83;;;5.90;;
41514;SDS011;27247;48.020;16.720;2023-05-29T22:02:45;15.10;;;6.43;;
41514;SDS011;27247;48.020;16.720;2023-05-29T22:06:56;9.02;;;5.15;;
41514;SDS011;27247;48.020;16.720;2023-05-29T22:11:06;7.00;;;4.70;;
41514;SDS011;27247;48.020;16.720;2023-05-29T22:15:17;12.30;;;5.93;;
41514;SDS011;27247;48.020;16.720;2023-05-29T22:19:28;12.38;;;6.13;;
41514;SDS011;27247;48.020;16.720;2023-05-29T22:23:40;10.05;;;5.20;;
41514;SDS011;27247;48.020;16.720;2023-05-29T22:27:50;9.52;;;4.60;;
41514;SDS011;27247;48.020;16.720;2023-05-29T22:32:01;10.18;;;5.30;;
41514;SDS011;27247;48.020;16.720;2023-05-29T22:36:11;7.97;;;4.70;;
41514;SDS011;27247;48.020;16.720;2023-05-29T22:40:21;9.03;;;5.03;;
41514;SDS011;27247;48.020;16.720;2023-05-29T22:44:32;10.82;;;5.75;;
41514;SDS011;27247;48.020;16.720;2023-05-29T22:48:42;13.80;;;5.73;;
41514;SDS011;27247;48.020;16.720;2023-05-29T22:52:52;10.07;;;5.37;;
41514;SDS011;27247;48.020;16.720;2023-05-29T22:57:03;9.68;;;5.45;;
41514;SDS011;27247;48.020;16.720;2023-05-29T23:01:14;11.40;;;6.28;;
41514;SDS011;27247;48.020;16.720;2023-05-29T23:05:25;11.90;;;6.07;;
41514;SDS011;27247;48.020;16.720;2023-05-29T23:09:35;14.82;;;5.95;;
41514;SDS011;27247;48.020;16.720;2023-05-29T23:13:46;11.27;;;6.03;;
41514;SDS011;27247;48.020;16.720;2023-05-29T23:17:56;10.57;;;5.35;;
41514;SDS011;27247;48.020;16.720;2023-05-29T23:22:07;9.90;;;5.63;;
41514;SDS011;27247;48.020;16.720;2023-05-29T23:26:17;11.18;;;5.45;;
41514;SDS011;27247;48.020;16.720;2023-05-29T23:30:28;11.70;;;5.68;;
41514;SDS011;27247;48.020;16.720;2023-05-29T23:34:38;9.97;;;5.03;;
41514;SDS011;27247;48.020;16.720;2023-05-29T23:38:49;10.93;;;6.03;;
41514;SDS011;27247;48.020;16.720;2023-05-29T23:42:59;10.27;;;5.73;;
41514;SDS011;27247;48.020;16.720;2023-05-29T23:47:09;9.05;;;5.15;;
41514;SDS011;27247;48.020;16.720;2023-05-29T23:51:20;11.45;;;6.28;;
41514;SDS011;27247;48.020;16.720;2023-05-29T23:55:30;9.93;;;5.57;;
41514;SDS011;27247;48.020;16.720;2023-05-29T23:59:42;9.73;;;6.13;;
